createdAt,value
2019-02-22T00:00:11.204Z,65.58
2019-02-22T00:02:37.157Z,65.84
2019-02-22T00:05:03.484Z,65.78
2019-02-22T00:07:29.322Z,66.23
2019-02-22T00:09:55.296Z,66.70
2019-02-22T00:12:21.191Z,66.51
2019-02-22T00:14:47.010Z,66.98
2019-02-22T00:17:13.042Z,67.05
2019-02-22T00:19:39.005Z,66.29
2019-02-22T00:22:04.840Z,66.17
2019-02-22T00:24:30.718Z,66.74
2019-02-22T00:26:56.538Z,67.10
2019-02-22T00:29:26.401Z,66.84
2019-02-22T00:31:52.278Z,66.46
2019-02-22T00:34:18.097Z,66.01
2019-02-22T00:36:44.040Z,66.60
2019-02-22T00:39:09.856Z,66.49
2019-02-22T00:41:35.745Z,66.24
2019-02-22T00:44:01.661Z,66.57
2019-02-22T00:46:27.594Z,66.78
2019-02-22T00:48:53.464Z,66.79
2019-02-22T00:51:19.379Z,66.73
2019-02-22T00:53:45.210Z,66.85
2019-02-22T00:56:11.060Z,66.52
2019-02-22T00:58:37.043Z,66.49
2019-02-22T01:01:02.939Z,66.64
2019-02-22T01:03:28.706Z,65.97
2019-02-22T01:05:54.612Z,65.62
2019-02-22T01:08:20.534Z,65.99
2019-02-22T01:10:46.497Z,66.26
2019-02-22T01:13:12.389Z,66.17
2019-02-22T01:15:38.410Z,66.17
2019-02-22T01:18:04.288Z,66.44
2019-02-22T01:20:30.126Z,66.42
2019-02-22T01:22:56.030Z,66.95
2019-02-22T01:25:21.864Z,67.01
2019-02-22T01:27:47.710Z,66.73
2019-02-22T01:30:13.823Z,66.71
2019-02-22T01:32:39.680Z,66.95
2019-02-22T01:35:05.677Z,66.84
2019-02-22T01:37:31.493Z,66.76
2019-02-22T01:39:57.321Z,66.59
2019-02-22T01:42:23.370Z,66.68
2019-02-22T01:44:49.268Z,66.87
2019-02-22T01:47:15.106Z,66.68
2019-02-22T01:49:40.978Z,66.23
2019-02-22T01:52:06.818Z,66.18
2019-02-22T01:54:32.922Z,66.17
2019-02-22T01:56:58.786Z,66.36
2019-02-22T01:59:24.620Z,66.90
2019-02-22T02:01:50.464Z,66.03
2019-02-22T02:04:16.425Z,65.68
2019-02-22T02:06:42.788Z,66.51
2019-02-22T02:09:08.833Z,66.52
2019-02-22T02:11:34.676Z,66.81
2019-02-22T02:14:00.796Z,66.98
2019-02-22T02:16:26.799Z,67.40
2019-02-22T02:18:52.683Z,66.92
2019-02-22T02:21:18.674Z,66.54
2019-02-22T02:23:44.581Z,66.50
2019-02-22T02:26:10.422Z,66.51
2019-02-22T02:28:36.278Z,66.47
2019-02-22T02:31:02.395Z,65.76
2019-02-22T02:33:28.213Z,65.87
2019-02-22T02:35:54.242Z,65.97
2019-02-22T02:38:20.159Z,65.86
2019-02-22T02:40:45.991Z,66.12
2019-02-22T02:43:11.829Z,65.77
2019-02-22T02:45:37.712Z,65.73
2019-02-22T02:48:03.641Z,65.77
2019-02-22T02:50:29.568Z,66.24
2019-02-22T02:52:55.658Z,67.52
2019-02-22T02:55:29.491Z,66.62
2019-02-22T02:57:55.515Z,66.89
2019-02-22T03:00:21.538Z,67.00
2019-02-22T03:02:47.425Z,67.27
2019-02-22T03:05:13.252Z,67.32
2019-02-22T03:07:43.499Z,66.73
2019-02-22T03:10:09.544Z,66.12
2019-02-22T03:12:35.493Z,66.09
2019-02-22T03:15:01.588Z,66.25
2019-02-22T03:17:27.443Z,66.57
2019-02-22T03:19:53.393Z,66.96
2019-02-22T03:22:19.277Z,66.95
2019-02-22T03:24:45.122Z,67.18
2019-02-22T03:27:10.969Z,67.32
2019-02-22T03:29:36.813Z,67.67
2019-02-22T03:32:06.420Z,67.31
2019-02-22T03:34:32.332Z,67.61
2019-02-22T03:36:58.207Z,67.83
2019-02-22T03:39:24.187Z,67.79
2019-02-22T03:41:50.047Z,67.73
2019-02-22T03:44:15.899Z,68.01
2019-02-22T03:46:41.758Z,68.47
2019-02-22T03:49:07.723Z,68.11
2019-02-22T03:51:33.588Z,67.87
2019-02-22T03:53:59.672Z,67.87
2019-02-22T03:56:25.612Z,68.24
2019-02-22T03:58:51.632Z,68.11
2019-02-22T04:01:17.744Z,67.27
2019-02-22T04:03:43.594Z,66.82
2019-02-22T04:06:09.521Z,66.82
2019-02-22T04:08:35.479Z,66.81
2019-02-22T04:11:01.455Z,67.20
2019-02-22T04:13:27.446Z,67.94
2019-02-22T04:15:53.406Z,67.21
2019-02-22T04:18:19.214Z,67.83
2019-02-22T04:20:45.093Z,68.38
2019-02-22T04:23:10.957Z,67.85
2019-02-22T04:25:36.809Z,68.39
2019-02-22T04:28:02.906Z,68.52
2019-02-22T04:30:28.756Z,67.98
2019-02-22T04:32:54.712Z,67.92
2019-02-22T04:35:20.683Z,67.89
2019-02-22T04:37:46.510Z,68.61
2019-02-22T04:40:12.359Z,68.38
2019-02-22T04:42:38.309Z,68.43
2019-02-22T04:45:04.941Z,67.83
2019-02-22T04:47:30.857Z,68.83
2019-02-22T04:49:56.717Z,68.83
2019-02-22T04:52:22.569Z,68.11
2019-02-22T04:54:48.405Z,68.26
2019-02-22T04:57:14.253Z,67.65
2019-02-22T04:59:40.114Z,67.87
2019-02-22T05:02:06.077Z,67.32
2019-02-22T05:04:31.927Z,67.80
2019-02-22T05:06:57.784Z,67.96
2019-02-22T05:09:23.725Z,67.75
2019-02-22T05:11:49.695Z,68.24
2019-02-22T05:14:15.701Z,68.23
2019-02-22T05:16:41.565Z,69.07
2019-02-22T05:19:07.428Z,68.49
2019-02-22T05:21:33.410Z,69.05
2019-02-22T05:23:59.221Z,69.59
2019-02-22T05:26:25.067Z,69.06
2019-02-22T05:28:50.979Z,69.27
2019-02-22T05:31:16.809Z,69.28
2019-02-22T05:33:42.697Z,69.45
2019-02-22T05:36:08.734Z,69.27
2019-02-22T05:38:34.652Z,69.31
2019-02-22T05:41:00.616Z,70.42
2019-02-22T05:43:26.590Z,70.25
2019-02-22T05:45:52.473Z,69.48
2019-02-22T05:48:18.324Z,68.81
2019-02-22T05:50:44.394Z,69.42
2019-02-22T05:53:10.360Z,68.97
2019-02-22T05:55:36.222Z,69.26
2019-02-22T05:58:07.144Z,68.96
2019-02-22T06:00:33.135Z,69.25
2019-02-22T06:02:59.243Z,69.21
2019-02-22T06:05:25.114Z,69.10
2019-02-22T06:07:50.947Z,69.21
2019-02-22T06:10:16.828Z,69.12
2019-02-22T06:12:42.673Z,69.14
2019-02-22T06:15:08.779Z,69.71
2019-02-22T06:17:34.745Z,69.26
2019-02-22T06:20:01.525Z,69.29
2019-02-22T06:22:29.829Z,69.40
2019-02-22T06:24:55.156Z,69.31
2019-02-22T06:27:21.009Z,69.25
2019-02-22T06:29:49.275Z,69.21
2019-02-22T06:32:14.727Z,68.57
2019-02-22T06:34:40.687Z,68.94
2019-02-22T06:37:06.584Z,68.97
2019-02-22T06:39:32.455Z,69.02
2019-02-22T06:41:58.398Z,68.00
2019-02-22T06:44:24.354Z,67.52
2019-02-22T06:46:50.178Z,67.76
2019-02-22T06:49:16.432Z,67.42
2019-02-22T06:51:42.278Z,67.10
2019-02-22T06:54:08.107Z,67.10
2019-02-22T06:56:34.062Z,67.17
2019-02-22T06:59:00.423Z,66.51
2019-02-22T07:01:26.588Z,65.79
2019-02-22T07:03:52.466Z,65.84
2019-02-22T07:06:18.278Z,65.56
2019-02-22T07:08:44.131Z,65.04
2019-02-22T07:11:11.880Z,64.47
2019-02-22T07:13:39.386Z,64.53
2019-02-22T07:16:05.317Z,64.93
2019-02-22T07:18:31.184Z,64.96
2019-02-22T07:20:57.047Z,64.85
2019-02-22T07:23:22.923Z,64.23
2019-02-22T07:25:48.767Z,64.07
2019-02-22T07:28:14.633Z,63.59
2019-02-22T07:30:40.604Z,62.50
2019-02-22T07:33:06.433Z,62.22
2019-02-22T07:35:36.066Z,62.11
2019-02-22T07:38:01.991Z,62.33
2019-02-22T07:40:27.847Z,62.07
2019-02-22T07:42:53.809Z,61.08
2019-02-22T07:45:19.670Z,60.41
2019-02-22T07:47:45.548Z,59.95
2019-02-22T07:50:11.469Z,59.81
2019-02-22T07:52:37.328Z,59.49
2019-02-22T07:55:05.237Z,59.52
2019-02-22T07:57:31.101Z,59.81
2019-02-22T07:59:56.917Z,58.82
2019-02-22T08:02:22.809Z,58.52
2019-02-22T08:04:48.699Z,58.61
2019-02-22T08:07:14.547Z,58.28
2019-02-22T08:09:40.367Z,57.47
2019-02-22T08:12:06.298Z,57.31
2019-02-22T08:14:32.251Z,56.83
2019-02-22T08:16:58.183Z,57.00
2019-02-22T08:19:24.037Z,55.46
2019-02-22T08:21:49.979Z,55.72
2019-02-22T08:24:15.827Z,55.20
2019-02-22T08:26:41.693Z,55.46
2019-02-22T08:29:07.519Z,55.84
2019-02-22T08:31:33.423Z,54.69
2019-02-22T08:33:59.250Z,54.71
2019-02-22T08:36:25.258Z,54.89
2019-02-22T08:38:51.249Z,55.64
2019-02-22T08:41:17.117Z,55.85
2019-02-22T08:43:42.971Z,56.21
2019-02-22T08:46:08.846Z,55.83
2019-02-22T08:48:34.652Z,55.72
2019-02-22T08:51:00.649Z,55.65
2019-02-22T08:53:26.478Z,53.98
2019-02-22T08:55:52.518Z,54.34
2019-02-22T08:58:18.479Z,53.05
2019-02-22T09:00:44.444Z,52.68
2019-02-22T09:03:10.312Z,52.61
2019-02-22T09:05:36.103Z,52.83
2019-02-22T09:08:01.942Z,52.63
2019-02-22T09:10:28.664Z,52.45
2019-02-22T09:12:54.512Z,50.93
2019-02-22T09:15:20.374Z,51.50
2019-02-22T09:17:46.204Z,50.17
2019-02-22T09:20:12.348Z,50.01
2019-02-22T09:22:38.342Z,49.95
2019-02-22T09:25:04.898Z,49.74
2019-02-22T09:27:30.820Z,50.13
2019-02-22T09:29:59.010Z,50.03
2019-02-22T09:32:24.655Z,49.19
2019-02-22T09:34:50.563Z,49.04
2019-02-22T09:37:16.453Z,48.64
2019-02-22T09:39:42.289Z,48.88
2019-02-22T09:42:09.043Z,48.37
2019-02-22T09:44:34.904Z,47.74
2019-02-22T09:47:00.856Z,47.73
2019-02-22T09:49:26.689Z,47.33
2019-02-22T09:51:52.578Z,47.40
2019-02-22T09:54:18.510Z,47.26
2019-02-22T09:56:44.520Z,47.35
2019-02-22T09:59:10.529Z,47.37
2019-02-22T10:01:36.585Z,47.79
2019-02-22T10:04:02.449Z,47.80
2019-02-22T10:06:28.278Z,48.20
2019-02-22T10:08:54.290Z,48.26
2019-02-22T10:11:20.151Z,48.41
2019-02-22T10:13:46.075Z,48.36
2019-02-22T10:16:11.941Z,48.17
2019-02-22T10:18:37.814Z,48.07
2019-02-22T10:21:03.663Z,47.93
2019-02-22T10:23:29.661Z,47.65
2019-02-22T10:25:55.516Z,46.64
2019-02-22T10:28:21.444Z,46.64
2019-02-22T10:30:47.380Z,46.87
2019-02-22T10:33:13.266Z,45.85
2019-02-22T10:35:39.094Z,45.98
2019-02-22T10:38:04.993Z,45.91
2019-02-22T10:40:31.040Z,45.82
2019-02-22T10:42:57.001Z,44.82
2019-02-22T10:45:22.848Z,44.84
2019-02-22T10:47:48.687Z,44.91
2019-02-22T10:50:14.638Z,44.42
2019-02-22T10:52:40.462Z,44.80
2019-02-22T10:55:11.684Z,43.85
2019-02-22T10:57:37.547Z,43.89
2019-02-22T11:00:07.939Z,44.61
2019-02-22T11:02:33.896Z,43.76
2019-02-22T11:04:59.761Z,43.89
2019-02-22T11:07:25.580Z,43.37
2019-02-22T11:09:51.524Z,43.18
2019-02-22T11:12:17.415Z,43.62
2019-02-22T11:14:43.415Z,43.23
2019-02-22T11:17:09.361Z,43.18
2019-02-22T11:19:35.344Z,42.63
2019-02-22T11:22:01.370Z,42.36
2019-02-22T11:24:27.191Z,41.93
2019-02-22T11:26:53.135Z,41.88
2019-02-22T11:29:19.066Z,41.84
2019-02-22T11:31:44.917Z,42.12
2019-02-22T11:34:10.862Z,41.85
2019-02-22T11:36:36.799Z,41.12
2019-02-22T11:39:04.305Z,41.66
2019-02-22T11:41:30.149Z,40.22
2019-02-22T11:43:56.121Z,40.55
2019-02-22T11:46:22.305Z,40.38
2019-02-22T11:48:48.144Z,39.98
2019-02-22T11:51:15.011Z,40.01
2019-02-22T11:53:41.010Z,40.42
2019-02-22T11:56:07.033Z,39.04
2019-02-22T11:58:32.860Z,39.39
2019-02-22T12:00:58.958Z,38.87
2019-02-22T12:03:25.268Z,38.47
2019-02-22T12:05:51.344Z,38.75
2019-02-22T12:08:17.325Z,38.56
2019-02-22T12:10:43.152Z,37.93
2019-02-22T12:13:09.072Z,37.96
2019-02-22T12:15:35.168Z,38.22
2019-02-22T12:18:01.096Z,37.97
2019-02-22T12:20:27.108Z,37.18
2019-02-22T12:22:53.012Z,37.40
2019-02-22T12:25:18.971Z,36.47
2019-02-22T12:27:44.839Z,31.69
2019-02-22T12:30:15.086Z,27.92
2019-02-22T12:32:41.149Z,24.01
2019-02-22T12:35:07.502Z,21.66
2019-02-22T12:37:39.606Z,22.75
2019-02-22T12:40:09.652Z,19.06
2019-02-22T12:42:35.695Z,17.90
2019-02-22T12:45:03.077Z,16.66
2019-02-22T12:47:29.430Z,14.96
2019-02-22T12:49:55.281Z,13.79
2019-02-22T12:52:21.401Z,13.28
2019-02-22T12:54:47.393Z,15.65
2019-02-22T12:57:13.327Z,17.46
2019-02-22T12:59:40.184Z,17.29
2019-02-22T13:02:06.424Z,17.96
2019-02-22T13:04:32.257Z,16.64
2019-02-22T13:06:58.202Z,15.22
2019-02-22T13:09:24.070Z,15.79
2019-02-22T13:11:49.916Z,15.71
2019-02-22T13:14:15.795Z,14.88
2019-02-22T13:16:41.630Z,15.52
2019-02-22T13:19:07.681Z,14.31
2019-02-22T13:21:33.752Z,16.04
2019-02-22T13:23:59.733Z,14.31
2019-02-22T13:26:25.714Z,12.29
2019-02-22T13:28:51.543Z,16.32
2019-02-22T13:31:17.616Z,14.96
2019-02-22T13:33:43.469Z,14.71
2019-02-22T13:36:09.441Z,12.61
2019-02-22T13:38:35.324Z,12.41
2019-02-22T13:41:01.391Z,12.68
2019-02-22T13:43:28.841Z,12.20
2019-02-22T13:45:54.821Z,12.20
2019-02-22T13:48:20.767Z,11.50
2019-02-22T13:50:46.603Z,12.78
2019-02-22T13:53:12.551Z,14.66
2019-02-22T13:55:38.456Z,14.84
2019-02-22T13:58:04.358Z,11.41
2019-02-22T14:00:30.216Z,11.41
2019-02-22T14:02:56.035Z,12.42
2019-02-22T14:05:22.151Z,13.18
2019-02-22T14:07:53.477Z,14.65
2019-02-22T14:10:19.395Z,13.85
2019-02-22T14:12:45.384Z,11.61
2019-02-22T14:15:11.466Z,11.14
2019-02-22T14:17:37.407Z,13.15
2019-02-22T14:20:06.126Z,12.42
2019-02-22T14:22:32.073Z,12.56
2019-02-22T14:24:58.038Z,14.31
2019-02-22T14:27:23.982Z,13.54
2019-02-22T14:29:49.818Z,11.57
2019-02-22T14:32:15.647Z,11.62
2019-02-22T14:34:41.484Z,10.94
2019-02-22T14:37:07.320Z,9.83
2019-02-22T14:39:33.159Z,10.05
2019-02-22T14:41:59.083Z,11.11
2019-02-22T14:44:25.040Z,10.00
2019-02-22T14:46:50.991Z,11.66
2019-02-22T14:49:17.083Z,10.93
2019-02-22T14:51:42.916Z,13.02
2019-02-22T14:54:08.753Z,12.51
2019-02-22T14:56:36.652Z,11.31
2019-02-22T14:59:02.727Z,12.04
2019-02-22T15:01:28.549Z,11.57
2019-02-22T15:03:54.634Z,11.07
2019-02-22T15:06:20.700Z,11.49
2019-02-22T15:08:46.648Z,11.00
2019-02-22T15:11:12.589Z,10.98
2019-02-22T15:13:38.841Z,12.03
2019-02-22T15:16:06.624Z,12.94
2019-02-22T15:18:32.471Z,11.58
2019-02-22T15:20:58.566Z,11.14
2019-02-22T15:23:24.439Z,11.49
2019-02-22T15:25:50.419Z,11.17
2019-02-22T15:28:16.269Z,13.29
2019-02-22T15:30:42.623Z,14.75
2019-02-22T15:33:10.002Z,16.75
2019-02-22T15:35:36.057Z,20.67
2019-02-22T15:38:01.868Z,21.34
2019-02-22T15:40:27.853Z,22.20
2019-02-22T15:42:53.859Z,22.84
2019-02-22T15:45:19.957Z,23.96
2019-02-22T15:47:48.595Z,25.50
2019-02-22T15:50:14.866Z,25.77
2019-02-22T15:52:40.809Z,27.21
2019-02-22T15:55:07.313Z,27.54
2019-02-22T15:57:33.267Z,27.77
2019-02-22T15:59:59.149Z,27.64
2019-02-22T16:02:25.071Z,28.16
2019-02-22T16:04:52.805Z,28.05
2019-02-22T16:07:18.912Z,28.57
2019-02-22T16:09:44.966Z,28.99
2019-02-22T16:12:12.922Z,28.93
2019-02-22T16:14:38.828Z,29.83
2019-02-22T16:17:04.674Z,30.92
2019-02-22T16:19:30.533Z,31.64
2019-02-22T16:21:59.596Z,33.16
2019-02-22T16:24:25.444Z,35.18
2019-02-22T16:26:53.195Z,36.72
2019-02-22T16:29:19.055Z,38.04
2019-02-22T16:31:45.093Z,39.04
2019-02-22T16:34:10.985Z,39.70
2019-02-22T16:36:36.973Z,40.88
2019-02-22T16:39:04.613Z,41.39
2019-02-22T16:41:30.522Z,42.13
2019-02-22T16:44:00.473Z,43.04
2019-02-22T16:46:34.405Z,44.09
2019-02-22T16:48:54.108Z,44.88
2019-02-22T16:51:20.029Z,44.73
2019-02-22T16:53:45.886Z,45.10
2019-02-22T16:56:11.781Z,45.46
2019-02-22T16:58:37.631Z,46.67
2019-02-22T17:01:03.953Z,46.77
2019-02-22T17:03:29.840Z,46.88
2019-02-22T17:05:56.077Z,47.17
2019-02-22T17:08:24.660Z,47.26
2019-02-22T17:10:50.768Z,47.95
2019-02-22T17:13:16.722Z,47.90
2019-02-22T17:15:42.779Z,47.85
2019-02-22T17:18:08.771Z,48.16
2019-02-22T17:20:34.619Z,48.73
2019-02-22T17:23:00.476Z,47.78
2019-02-22T17:25:26.441Z,48.33
2019-02-22T17:27:52.272Z,47.80
2019-02-22T17:30:19.497Z,49.92
2019-02-22T17:32:45.508Z,50.16
2019-02-22T17:35:11.555Z,49.50
2019-02-22T17:37:37.409Z,50.00
2019-02-22T17:40:07.150Z,50.24
2019-02-22T17:42:32.986Z,49.56
2019-02-22T17:45:02.234Z,50.08
2019-02-22T17:47:28.064Z,48.73
2019-02-22T17:49:53.889Z,49.73
2019-02-22T17:52:19.905Z,50.11
2019-02-22T17:54:45.849Z,50.06
2019-02-22T17:57:11.685Z,50.03
2019-02-22T17:59:37.556Z,50.04
2019-02-22T18:02:03.506Z,50.63
2019-02-22T18:04:29.447Z,50.15
2019-02-22T18:06:55.310Z,50.37
2019-02-22T18:09:21.162Z,51.05
2019-02-22T18:11:47.168Z,52.23
2019-02-22T18:14:13.146Z,52.43
2019-02-22T18:16:39.021Z,52.38
2019-02-22T18:19:04.945Z,52.24
2019-02-22T18:21:30.790Z,52.09
2019-02-22T18:23:57.054Z,53.37
2019-02-22T18:26:22.963Z,53.59
2019-02-22T18:28:49.653Z,54.01
2019-02-22T18:31:15.660Z,53.05
2019-02-22T18:33:41.545Z,49.24
2019-02-22T18:36:07.563Z,52.16
2019-02-22T18:38:36.455Z,51.35
2019-02-22T18:41:03.044Z,49.79
2019-02-22T18:43:28.978Z,50.01
2019-02-22T18:45:54.803Z,50.67
2019-02-22T18:48:20.883Z,49.38
2019-02-22T18:50:47.075Z,51.08
2019-02-22T18:53:12.991Z,51.25
2019-02-22T18:55:49.071Z,50.92
2019-02-22T18:58:06.858Z,51.54
2019-02-22T19:00:32.731Z,53.29
2019-02-22T19:02:58.727Z,52.47
2019-02-22T19:05:24.586Z,52.03
2019-02-22T19:07:50.647Z,52.03
2019-02-22T19:10:17.387Z,52.77
2019-02-22T19:12:43.228Z,52.56
2019-02-22T19:15:11.015Z,52.40
2019-02-22T19:17:37.012Z,52.06
2019-02-22T19:20:08.330Z,52.45
2019-02-22T19:22:33.875Z,52.32
2019-02-22T19:24:59.815Z,52.41
2019-02-22T19:27:25.738Z,53.06
2019-02-22T19:29:51.603Z,52.95
2019-02-22T19:32:17.715Z,52.90
2019-02-22T19:34:43.676Z,51.87
2019-02-22T19:37:09.512Z,51.94
2019-02-22T19:39:35.459Z,51.99
2019-02-22T19:42:01.476Z,52.07
2019-02-22T19:44:27.405Z,52.97
2019-02-22T19:46:55.623Z,51.55
2019-02-22T19:49:21.148Z,50.14
2019-02-22T19:51:47.018Z,50.57
2019-02-22T19:54:12.866Z,50.50
2019-02-22T19:56:38.804Z,49.45
2019-02-22T19:59:04.899Z,47.94
2019-02-22T20:01:30.884Z,48.00
2019-02-22T20:03:56.883Z,48.24
2019-02-22T20:06:22.794Z,48.05
2019-02-22T20:08:48.691Z,48.21
2019-02-22T20:11:14.527Z,48.36
2019-02-22T20:13:40.370Z,48.23
2019-02-22T20:16:06.232Z,48.24
2019-02-22T20:18:32.076Z,48.65
2019-02-22T20:20:58.082Z,48.16
2019-02-22T20:23:26.337Z,48.29
2019-02-22T20:25:51.796Z,48.42
2019-02-22T20:28:17.635Z,48.82
2019-02-22T20:30:43.482Z,49.00
2019-02-22T20:33:09.334Z,49.61
2019-02-22T20:35:35.552Z,50.00
2019-02-22T20:38:01.381Z,50.05
2019-02-22T20:40:27.231Z,50.35
2019-02-22T20:42:53.286Z,49.29
2019-02-22T20:45:19.305Z,48.50
2019-02-22T20:47:45.371Z,47.85
2019-02-22T20:50:12.728Z,47.54
2019-02-22T20:52:38.666Z,47.23
2019-02-22T20:55:06.491Z,47.17
2019-02-22T20:57:34.747Z,48.13
2019-02-22T21:00:00.540Z,48.74
2019-02-22T21:02:26.394Z,49.48
2019-02-22T21:04:52.228Z,49.62
2019-02-22T21:07:18.338Z,49.63
2019-02-22T21:09:44.195Z,49.26
2019-02-22T21:12:10.199Z,49.03
2019-02-22T21:14:36.024Z,49.18
2019-02-22T21:17:01.894Z,49.02
2019-02-22T21:19:27.801Z,49.35
2019-02-22T21:21:53.779Z,49.13
2019-02-22T21:24:19.856Z,49.09
2019-02-22T21:26:47.146Z,49.57
2019-02-22T21:29:13.110Z,49.72
2019-02-22T21:31:39.154Z,49.19
2019-02-22T21:34:05.010Z,50.17
2019-02-22T21:36:31.156Z,50.29
2019-02-22T21:38:57.088Z,50.62
2019-02-22T21:41:22.943Z,50.53
2019-02-22T21:43:49.883Z,50.26
2019-02-22T21:46:15.741Z,50.32
2019-02-22T21:48:41.561Z,50.30
2019-02-22T21:51:07.430Z,49.25
2019-02-22T21:53:33.294Z,49.93
2019-02-22T21:55:59.233Z,50.14
2019-02-22T21:58:25.175Z,49.97
2019-02-22T22:00:51.031Z,49.81
2019-02-22T22:03:17.037Z,50.05
2019-02-22T22:05:42.895Z,49.60
2019-02-22T22:08:08.830Z,49.70
2019-02-22T22:10:34.709Z,50.05
2019-02-22T22:13:00.652Z,50.18
2019-02-22T22:15:26.473Z,50.01
2019-02-22T22:17:52.348Z,49.75
2019-02-22T22:20:18.285Z,49.84
2019-02-22T22:22:44.267Z,50.35
2019-02-22T22:25:12.001Z,51.64
2019-02-22T22:27:37.948Z,52.41
2019-02-22T22:30:07.062Z,52.74
2019-02-22T22:32:32.901Z,52.77
2019-02-22T22:34:58.720Z,51.89
2019-02-22T22:37:24.721Z,51.48
2019-02-22T22:39:51.302Z,51.93
2019-02-22T22:42:17.149Z,52.94
2019-02-22T22:44:43.024Z,52.32
2019-02-22T22:47:12.165Z,52.05
2019-02-22T22:49:38.022Z,51.72
2019-02-22T22:52:03.854Z,51.47
2019-02-22T22:54:29.708Z,51.13
2019-02-22T22:56:55.586Z,50.50
2019-02-22T22:59:21.534Z,50.64
2019-02-22T23:01:47.582Z,50.72
2019-02-22T23:04:13.539Z,50.31
2019-02-22T23:06:39.472Z,50.68
2019-02-22T23:09:07.443Z,50.63
2019-02-22T23:11:33.585Z,50.61
2019-02-22T23:13:59.528Z,50.06
2019-02-22T23:16:25.356Z,50.23
2019-02-22T23:19:01.434Z,49.62
2019-02-22T23:21:19.352Z,49.69
2019-02-22T23:23:45.432Z,49.41
2019-02-22T23:26:11.397Z,48.99
2019-02-22T23:28:37.275Z,48.31
2019-02-22T23:31:03.117Z,48.59
2019-02-22T23:33:29.051Z,48.75
2019-02-22T23:35:55.166Z,49.21
2019-02-22T23:38:21.123Z,49.21
2019-02-22T23:40:46.962Z,49.07
2019-02-22T23:43:13.674Z,49.46
2019-02-22T23:45:39.686Z,49.73
2019-02-22T23:48:05.636Z,49.65
2019-02-22T23:50:31.525Z,49.30
2019-02-22T23:52:57.371Z,49.41
2019-02-22T23:55:23.302Z,49.77
2019-02-22T23:57:49.145Z,50.46
